sensor_id;sensor_type;location;lat;lon;timestamp;P1;durP1;ratioP1;P2;durP2;ratioP2
32094;SDS011;18608;53.688;10.748;2023-05-16T00:01:13;11.83;;;6.70;;
32094;SDS011;18608;53.688;10.748;2023-05-16T00:03:40;10.73;;;6.00;;
32094;SDS011;18608;53.688;10.748;2023-05-16T00:06:07;7.63;;;5.47;;
32094;SDS011;18608;53.688;10.748;2023-05-16T00:08:33;10.37;;;6.27;;
32094;SDS011;18608;53.688;10.748;2023-05-16T00:10:59;19.13;;;7.20;;
32094;SDS011;18608;53.688;10.748;2023-05-16T00:13:25;7.70;;;5.53;;
32094;SDS011;18608;53.688;10.748;2023-05-16T00:15:52;9.13;;;6.40;;
32094;SDS011;18608;53.688;10.748;2023-05-16T00:18:19;7.30;;;5.37;;
32094;SDS011;18608;53.688;10.748;2023-05-16T00:20:46;6.03;;;5.40;;
32094;SDS011;18608;53.688;10.748;2023-05-16T00:23:12;8.40;;;4.40;;
32094;SDS011;18608;53.688;10.748;2023-05-16T00:25:38;4.77;;;4.33;;
32094;SDS011;18608;53.688;10.748;2023-05-16T00:28:04;5.10;;;4.60;;
32094;SDS011;18608;53.688;10.748;2023-05-16T00:30:31;9.30;;;5.27;;
32094;SDS011;18608;53.688;10.748;2023-05-16T00:32:57;6.50;;;5.80;;
32094;SDS011;18608;53.688;10.748;2023-05-16T00:35:23;7.60;;;5.60;;
32094;SDS011;18608;53.688;10.748;2023-05-16T00:37:49;13.17;;;5.23;;
32094;SDS011;18608;53.688;10.748;2023-05-16T00:40:15;9.03;;;5.50;;
32094;SDS011;18608;53.688;10.748;2023-05-16T00:42:41;6.03;;;4.93;;
32094;SDS011;18608;53.688;10.748;2023-05-16T00:45:07;6.93;;;4.30;;
32094;SDS011;18608;53.688;10.748;2023-05-16T00:47:34;7.93;;;4.50;;
32094;SDS011;18608;53.688;10.748;2023-05-16T00:50:00;7.63;;;4.97;;
32094;SDS011;18608;53.688;10.748;2023-05-16T00:52:27;8.30;;;5.13;;
32094;SDS011;18608;53.688;10.748;2023-05-16T00:54:53;7.00;;;4.90;;
32094;SDS011;18608;53.688;10.748;2023-05-16T00:57:19;11.17;;;6.33;;
32094;SDS011;18608;53.688;10.748;2023-05-16T00:59:45;6.47;;;4.40;;
32094;SDS011;18608;53.688;10.748;2023-05-16T01:02:12;10.87;;;5.17;;
32094;SDS011;18608;53.688;10.748;2023-05-16T01:04:38;12.30;;;6.47;;
32094;SDS011;18608;53.688;10.748;2023-05-16T01:07:04;10.00;;;5.17;;
32094;SDS011;18608;53.688;10.748;2023-05-16T01:09:30;7.80;;;4.43;;
32094;SDS011;18608;53.688;10.748;2023-05-16T01:12:08;6.27;;;4.10;;
32094;SDS011;18608;53.688;10.748;2023-05-16T01:27:41;11.10;;;7.97;;
32094;SDS011;18608;53.688;10.748;2023-05-16T01:30:16;8.97;;;5.23;;
32094;SDS011;18608;53.688;10.748;2023-05-16T01:32:43;8.83;;;4.13;;
32094;SDS011;18608;53.688;10.748;2023-05-16T01:35:10;6.00;;;4.60;;
32094;SDS011;18608;53.688;10.748;2023-05-16T01:42:59;8.20;;;5.00;;
32094;SDS011;18608;53.688;10.748;2023-05-16T01:45:31;6.63;;;5.33;;
32094;SDS011;18608;53.688;10.748;2023-05-16T01:48:07;6.77;;;4.50;;
32094;SDS011;18608;53.688;10.748;2023-05-16T01:50:42;5.33;;;4.37;;
32094;SDS011;18608;53.688;10.748;2023-05-16T01:53:13;12.23;;;5.03;;
32094;SDS011;18608;53.688;10.748;2023-05-16T01:55:46;8.87;;;5.43;;
32094;SDS011;18608;53.688;10.748;2023-05-16T01:58:12;6.33;;;4.83;;
32094;SDS011;18608;53.688;10.748;2023-05-16T02:00:40;10.77;;;5.00;;
32094;SDS011;18608;53.688;10.748;2023-05-16T02:03:06;8.77;;;4.97;;
32094;SDS011;18608;53.688;10.748;2023-05-16T02:05:32;8.60;;;4.70;;
32094;SDS011;18608;53.688;10.748;2023-05-16T02:07:59;6.90;;;4.73;;
32094;SDS011;18608;53.688;10.748;2023-05-16T02:10:25;8.90;;;5.00;;
32094;SDS011;18608;53.688;10.748;2023-05-16T02:12:51;7.07;;;5.30;;
32094;SDS011;18608;53.688;10.748;2023-05-16T02:15:17;5.67;;;4.47;;
32094;SDS011;18608;53.688;10.748;2023-05-16T02:17:43;5.83;;;4.33;;
32094;SDS011;18608;53.688;10.748;2023-05-16T02:20:10;6.73;;;4.33;;
32094;SDS011;18608;53.688;10.748;2023-05-16T02:22:36;14.00;;;4.57;;
32094;SDS011;18608;53.688;10.748;2023-05-16T02:25:11;3.77;;;3.47;;
32094;SDS011;18608;53.688;10.748;2023-05-16T02:27:37;5.13;;;3.60;;
32094;SDS011;18608;53.688;10.748;2023-05-16T02:30:03;5.93;;;3.90;;
32094;SDS011;18608;53.688;10.748;2023-05-16T02:32:30;3.27;;;2.97;;
32094;SDS011;18608;53.688;10.748;2023-05-16T02:34:56;7.20;;;4.03;;
32094;SDS011;18608;53.688;10.748;2023-05-16T02:37:22;5.30;;;3.40;;
32094;SDS011;18608;53.688;10.748;2023-05-16T02:39:48;3.83;;;2.70;;
32094;SDS011;18608;53.688;10.748;2023-05-16T02:42:15;14.63;;;3.40;;
32094;SDS011;18608;53.688;10.748;2023-05-16T02:44:40;4.43;;;2.70;;
32094;SDS011;18608;53.688;10.748;2023-05-16T02:47:06;4.57;;;3.23;;
32094;SDS011;18608;53.688;10.748;2023-05-16T02:49:33;4.77;;;3.20;;
32094;SDS011;18608;53.688;10.748;2023-05-16T02:51:59;6.50;;;2.70;;
32094;SDS011;18608;53.688;10.748;2023-05-16T02:54:25;3.77;;;2.70;;
32094;SDS011;18608;53.688;10.748;2023-05-16T02:56:51;5.73;;;3.23;;
32094;SDS011;18608;53.688;10.748;2023-05-16T02:59:17;4.83;;;2.90;;
32094;SDS011;18608;53.688;10.748;2023-05-16T03:01:43;4.53;;;2.20;;
32094;SDS011;18608;53.688;10.748;2023-05-16T03:04:09;3.13;;;2.83;;
32094;SDS011;18608;53.688;10.748;2023-05-16T03:06:35;3.10;;;1.90;;
32094;SDS011;18608;53.688;10.748;2023-05-16T03:09:01;7.70;;;2.67;;
32094;SDS011;18608;53.688;10.748;2023-05-16T03:11:27;14.83;;;2.53;;
32094;SDS011;18608;53.688;10.748;2023-05-16T03:13:53;4.10;;;2.67;;
32094;SDS011;18608;53.688;10.748;2023-05-16T03:16:19;5.93;;;2.30;;
32094;SDS011;18608;53.688;10.748;2023-05-16T03:18:45;12.77;;;2.50;;
32094;SDS011;18608;53.688;10.748;2023-05-16T03:21:11;2.90;;;2.10;;
32094;SDS011;18608;53.688;10.748;2023-05-16T03:23:38;3.67;;;2.90;;
32094;SDS011;18608;53.688;10.748;2023-05-16T03:26:04;10.50;;;2.97;;
32094;SDS011;18608;53.688;10.748;2023-05-16T03:28:30;4.97;;;3.20;;
32094;SDS011;18608;53.688;10.748;2023-05-16T03:30:56;12.80;;;3.17;;
32094;SDS011;18608;53.688;10.748;2023-05-16T03:33:22;2.27;;;2.07;;
32094;SDS011;18608;53.688;10.748;2023-05-16T03:35:48;8.23;;;3.27;;
32094;SDS011;18608;53.688;10.748;2023-05-16T03:38:15;8.93;;;3.17;;
32094;SDS011;18608;53.688;10.748;2023-05-16T03:40:41;10.20;;;2.80;;
32094;SDS011;18608;53.688;10.748;2023-05-16T03:43:07;7.90;;;2.50;;
32094;SDS011;18608;53.688;10.748;2023-05-16T03:45:33;7.77;;;2.60;;
32094;SDS011;18608;53.688;10.748;2023-05-16T03:47:59;7.43;;;3.17;;
32094;SDS011;18608;53.688;10.748;2023-05-16T03:50:25;12.27;;;2.83;;
32094;SDS011;18608;53.688;10.748;2023-05-16T03:52:51;8.00;;;3.30;;
32094;SDS011;18608;53.688;10.748;2023-05-16T03:55:18;7.13;;;2.60;;
32094;SDS011;18608;53.688;10.748;2023-05-16T03:57:44;10.30;;;2.73;;
32094;SDS011;18608;53.688;10.748;2023-05-16T04:00:11;5.50;;;3.10;;
32094;SDS011;18608;53.688;10.748;2023-05-16T04:02:38;13.20;;;3.43;;
32094;SDS011;18608;53.688;10.748;2023-05-16T04:05:05;6.50;;;2.57;;
32094;SDS011;18608;53.688;10.748;2023-05-16T04:07:32;20.70;;;3.07;;
32094;SDS011;18608;53.688;10.748;2023-05-16T04:09:58;8.30;;;4.20;;
32094;SDS011;18608;53.688;10.748;2023-05-16T04:12:24;38.77;;;5.90;;
32094;SDS011;18608;53.688;10.748;2023-05-16T04:14:50;9.33;;;3.30;;
32094;SDS011;18608;53.688;10.748;2023-05-16T04:17:16;8.47;;;3.40;;
32094;SDS011;18608;53.688;10.748;2023-05-16T04:19:42;20.67;;;3.23;;
32094;SDS011;18608;53.688;10.748;2023-05-16T04:22:08;11.23;;;3.40;;
32094;SDS011;18608;53.688;10.748;2023-05-16T04:24:34;12.67;;;3.70;;
32094;SDS011;18608;53.688;10.748;2023-05-16T04:27:00;9.30;;;3.23;;
32094;SDS011;18608;53.688;10.748;2023-05-16T04:29:26;8.10;;;3.43;;
32094;SDS011;18608;53.688;10.748;2023-05-16T04:31:52;9.47;;;3.23;;
32094;SDS011;18608;53.688;10.748;2023-05-16T04:34:18;8.80;;;2.93;;
32094;SDS011;18608;53.688;10.748;2023-05-16T04:36:44;13.10;;;4.67;;
32094;SDS011;18608;53.688;10.748;2023-05-16T04:39:10;11.07;;;3.20;;
32094;SDS011;18608;53.688;10.748;2023-05-16T04:41:36;8.90;;;3.03;;
32094;SDS011;18608;53.688;10.748;2023-05-16T04:44:03;10.10;;;2.90;;
32094;SDS011;18608;53.688;10.748;2023-05-16T04:46:29;18.43;;;4.30;;
32094;SDS011;18608;53.688;10.748;2023-05-16T04:48:55;5.80;;;3.27;;
32094;SDS011;18608;53.688;10.748;2023-05-16T04:51:21;7.97;;;3.63;;
32094;SDS011;18608;53.688;10.748;2023-05-16T04:53:47;13.03;;;3.63;;
32094;SDS011;18608;53.688;10.748;2023-05-16T04:56:13;10.70;;;4.00;;
32094;SDS011;18608;53.688;10.748;2023-05-16T04:58:39;11.53;;;3.37;;
32094;SDS011;18608;53.688;10.748;2023-05-16T05:01:05;15.83;;;2.80;;
32094;SDS011;18608;53.688;10.748;2023-05-16T05:03:31;16.63;;;3.17;;
32094;SDS011;18608;53.688;10.748;2023-05-16T05:05:59;15.03;;;3.53;;
32094;SDS011;18608;53.688;10.748;2023-05-16T05:08:25;11.77;;;3.00;;
32094;SDS011;18608;53.688;10.748;2023-05-16T05:10:51;10.33;;;2.70;;
32094;SDS011;18608;53.688;10.748;2023-05-16T05:13:17;17.23;;;2.90;;
32094;SDS011;18608;53.688;10.748;2023-05-16T05:15:43;17.97;;;3.73;;
32094;SDS011;18608;53.688;10.748;2023-05-16T05:18:09;9.83;;;2.70;;
32094;SDS011;18608;53.688;10.748;2023-05-16T05:20:35;8.53;;;3.03;;
32094;SDS011;18608;53.688;10.748;2023-05-16T05:23:02;12.20;;;2.13;;
32094;SDS011;18608;53.688;10.748;2023-05-16T05:25:28;14.23;;;2.83;;
32094;SDS011;18608;53.688;10.748;2023-05-16T05:27:54;9.53;;;3.60;;
32094;SDS011;18608;53.688;10.748;2023-05-16T05:30:20;17.43;;;3.50;;
32094;SDS011;18608;53.688;10.748;2023-05-16T05:32:46;11.67;;;3.13;;
32094;SDS011;18608;53.688;10.748;2023-05-16T05:35:12;11.90;;;3.00;;
32094;SDS011;18608;53.688;10.748;2023-05-16T05:37:39;17.73;;;3.17;;
32094;SDS011;18608;53.688;10.748;2023-05-16T05:40:05;16.53;;;3.67;;
32094;SDS011;18608;53.688;10.748;2023-05-16T05:42:31;13.30;;;3.40;;
32094;SDS011;18608;53.688;10.748;2023-05-16T05:44:57;11.30;;;3.03;;
32094;SDS011;18608;53.688;10.748;2023-05-16T05:47:23;9.57;;;2.53;;
32094;SDS011;18608;53.688;10.748;2023-05-16T05:49:50;12.17;;;3.20;;
32094;SDS011;18608;53.688;10.748;2023-05-16T05:52:16;17.50;;;2.93;;
32094;SDS011;18608;53.688;10.748;2023-05-16T05:54:42;7.70;;;2.70;;
32094;SDS011;18608;53.688;10.748;2023-05-16T05:57:08;14.87;;;2.90;;
32094;SDS011;18608;53.688;10.748;2023-05-16T05:59:34;10.70;;;2.87;;
32094;SDS011;18608;53.688;10.748;2023-05-16T06:02:00;9.97;;;3.67;;
32094;SDS011;18608;53.688;10.748;2023-05-16T06:04:26;11.83;;;1.80;;
32094;SDS011;18608;53.688;10.748;2023-05-16T06:06:52;14.77;;;2.53;;
32094;SDS011;18608;53.688;10.748;2023-05-16T06:09:19;13.20;;;2.10;;
32094;SDS011;18608;53.688;10.748;2023-05-16T06:11:45;9.17;;;2.90;;
32094;SDS011;18608;53.688;10.748;2023-05-16T06:14:12;6.97;;;2.60;;
32094;SDS011;18608;53.688;10.748;2023-05-16T06:16:38;5.20;;;2.27;;
32094;SDS011;18608;53.688;10.748;2023-05-16T06:19:04;10.23;;;2.60;;
32094;SDS011;18608;53.688;10.748;2023-05-16T06:21:30;12.03;;;3.50;;
32094;SDS011;18608;53.688;10.748;2023-05-16T06:23:57;4.93;;;2.03;;
32094;SDS011;18608;53.688;10.748;2023-05-16T06:26:23;14.43;;;2.60;;
32094;SDS011;18608;53.688;10.748;2023-05-16T06:28:49;8.90;;;2.57;;
32094;SDS011;18608;53.688;10.748;2023-05-16T06:31:15;6.97;;;2.20;;
32094;SDS011;18608;53.688;10.748;2023-05-16T06:33:41;11.17;;;2.50;;
32094;SDS011;18608;53.688;10.748;2023-05-16T06:36:07;7.07;;;2.20;;
32094;SDS011;18608;53.688;10.748;2023-05-16T06:38:33;12.40;;;2.97;;
32094;SDS011;18608;53.688;10.748;2023-05-16T06:40:59;11.47;;;2.37;;
32094;SDS011;18608;53.688;10.748;2023-05-16T06:43:25;13.97;;;2.80;;
32094;SDS011;18608;53.688;10.748;2023-05-16T06:45:51;5.43;;;2.00;;
32094;SDS011;18608;53.688;10.748;2023-05-16T06:48:17;3.13;;;1.60;;
32094;SDS011;18608;53.688;10.748;2023-05-16T06:50:49;2.70;;;1.80;;
32094;SDS011;18608;53.688;10.748;2023-05-16T06:53:16;7.70;;;2.20;;
32094;SDS011;18608;53.688;10.748;2023-05-16T06:55:42;21.30;;;4.27;;
32094;SDS011;18608;53.688;10.748;2023-05-16T06:58:08;14.97;;;2.60;;
32094;SDS011;18608;53.688;10.748;2023-05-16T07:00:34;16.13;;;2.83;;
32094;SDS011;18608;53.688;10.748;2023-05-16T07:03:01;6.10;;;2.90;;
32094;SDS011;18608;53.688;10.748;2023-05-16T07:05:27;8.30;;;2.00;;
32094;SDS011;18608;53.688;10.748;2023-05-16T07:07:53;10.70;;;1.70;;
32094;SDS011;18608;53.688;10.748;2023-05-16T07:10:20;5.17;;;2.23;;
32094;SDS011;18608;53.688;10.748;2023-05-16T07:12:46;8.23;;;1.70;;
32094;SDS011;18608;53.688;10.748;2023-05-16T07:15:12;18.20;;;2.80;;
32094;SDS011;18608;53.688;10.748;2023-05-16T07:17:38;16.50;;;2.10;;
32094;SDS011;18608;53.688;10.748;2023-05-16T07:20:05;20.00;;;2.30;;
32094;SDS011;18608;53.688;10.748;2023-05-16T07:22:32;7.93;;;2.03;;
32094;SDS011;18608;53.688;10.748;2023-05-16T07:24:58;9.00;;;2.00;;
32094;SDS011;18608;53.688;10.748;2023-05-16T07:27:25;6.93;;;1.83;;
32094;SDS011;18608;53.688;10.748;2023-05-16T07:29:51;6.30;;;1.17;;
32094;SDS011;18608;53.688;10.748;2023-05-16T07:32:17;10.70;;;1.70;;
32094;SDS011;18608;53.688;10.748;2023-05-16T07:34:44;5.60;;;1.80;;
32094;SDS011;18608;53.688;10.748;2023-05-16T07:37:10;10.63;;;2.00;;
32094;SDS011;18608;53.688;10.748;2023-05-16T07:39:40;6.80;;;1.83;;
32094;SDS011;18608;53.688;10.748;2023-05-16T07:42:07;8.33;;;2.10;;
32094;SDS011;18608;53.688;10.748;2023-05-16T07:44:33;10.73;;;2.83;;
32094;SDS011;18608;53.688;10.748;2023-05-16T07:46:59;7.27;;;2.00;;
32094;SDS011;18608;53.688;10.748;2023-05-16T07:49:25;5.90;;;2.40;;
32094;SDS011;18608;53.688;10.748;2023-05-16T07:51:51;5.43;;;1.50;;
32094;SDS011;18608;53.688;10.748;2023-05-16T07:54:17;10.03;;;1.83;;
32094;SDS011;18608;53.688;10.748;2023-05-16T07:56:43;9.20;;;1.20;;
32094;SDS011;18608;53.688;10.748;2023-05-16T07:59:09;4.63;;;1.53;;
32094;SDS011;18608;53.688;10.748;2023-05-16T08:01:35;9.83;;;1.90;;
32094;SDS011;18608;53.688;10.748;2023-05-16T08:04:01;2.67;;;1.33;;
32094;SDS011;18608;53.688;10.748;2023-05-16T08:06:27;4.23;;;1.50;;
32094;SDS011;18608;53.688;10.748;2023-05-16T08:08:53;4.10;;;2.07;;
32094;SDS011;18608;53.688;10.748;2023-05-16T08:11:20;10.57;;;1.50;;
32094;SDS011;18608;53.688;10.748;2023-05-16T08:13:47;5.10;;;1.87;;
32094;SDS011;18608;53.688;10.748;2023-05-16T08:16:13;3.53;;;1.60;;
32094;SDS011;18608;53.688;10.748;2023-05-16T08:18:39;8.10;;;2.50;;
32094;SDS011;18608;53.688;10.748;2023-05-16T08:21:06;3.87;;;1.60;;
32094;SDS011;18608;53.688;10.748;2023-05-16T08:23:33;7.73;;;1.87;;
32094;SDS011;18608;53.688;10.748;2023-05-16T08:26:00;5.03;;;1.70;;
32094;SDS011;18608;53.688;10.748;2023-05-16T08:28:27;3.87;;;1.93;;
32094;SDS011;18608;53.688;10.748;2023-05-16T08:30:53;5.93;;;1.50;;
32094;SDS011;18608;53.688;10.748;2023-05-16T08:33:18;5.80;;;2.27;;
32094;SDS011;18608;53.688;10.748;2023-05-16T08:35:44;7.20;;;1.47;;
32094;SDS011;18608;53.688;10.748;2023-05-16T08:38:10;10.00;;;2.60;;
32094;SDS011;18608;53.688;10.748;2023-05-16T08:40:36;6.30;;;1.60;;
32094;SDS011;18608;53.688;10.748;2023-05-16T08:43:02;11.80;;;2.33;;
32094;SDS011;18608;53.688;10.748;2023-05-16T08:45:29;5.97;;;2.07;;
32094;SDS011;18608;53.688;10.748;2023-05-16T08:47:55;10.63;;;2.37;;
32094;SDS011;18608;53.688;10.748;2023-05-16T08:50:24;8.50;;;2.30;;
32094;SDS011;18608;53.688;10.748;2023-05-16T08:52:51;12.80;;;2.33;;
32094;SDS011;18608;53.688;10.748;2023-05-16T08:55:18;15.93;;;3.10;;
32094;SDS011;18608;53.688;10.748;2023-05-16T08:57:47;8.20;;;2.00;;
32094;SDS011;18608;53.688;10.748;2023-05-16T09:00:13;7.70;;;1.80;;
32094;SDS011;18608;53.688;10.748;2023-05-16T09:02:41;7.27;;;2.47;;
32094;SDS011;18608;53.688;10.748;2023-05-16T09:05:08;6.60;;;2.20;;
32094;SDS011;18608;53.688;10.748;2023-05-16T09:07:36;10.40;;;1.80;;
32094;SDS011;18608;53.688;10.748;2023-05-16T09:10:02;6.20;;;1.73;;
32094;SDS011;18608;53.688;10.748;2023-05-16T09:12:30;8.43;;;1.67;;
32094;SDS011;18608;53.688;10.748;2023-05-16T09:14:56;7.23;;;1.83;;
32094;SDS011;18608;53.688;10.748;2023-05-16T09:17:23;6.73;;;2.13;;
32094;SDS011;18608;53.688;10.748;2023-05-16T09:19:49;7.70;;;1.70;;
32094;SDS011;18608;53.688;10.748;2023-05-16T09:22:17;5.53;;;1.47;;
32094;SDS011;18608;53.688;10.748;2023-05-16T09:24:44;6.67;;;1.77;;
32094;SDS011;18608;53.688;10.748;2023-05-16T09:27:14;15.80;;;1.97;;
32094;SDS011;18608;53.688;10.748;2023-05-16T09:29:40;9.43;;;1.90;;
32094;SDS011;18608;53.688;10.748;2023-05-16T09:32:11;5.43;;;1.50;;
32094;SDS011;18608;53.688;10.748;2023-05-16T09:34:45;5.77;;;1.97;;
32094;SDS011;18608;53.688;10.748;2023-05-16T09:37:16;3.87;;;1.50;;
32094;SDS011;18608;53.688;10.748;2023-05-16T09:39:46;5.10;;;1.63;;
32094;SDS011;18608;53.688;10.748;2023-05-16T09:42:14;3.30;;;1.47;;
32094;SDS011;18608;53.688;10.748;2023-05-16T09:44:44;7.17;;;2.80;;
32094;SDS011;18608;53.688;10.748;2023-05-16T09:47:15;4.77;;;1.30;;
32094;SDS011;18608;53.688;10.748;2023-05-16T09:49:43;8.37;;;1.63;;
32094;SDS011;18608;53.688;10.748;2023-05-16T09:52:10;5.40;;;1.13;;
32094;SDS011;18608;53.688;10.748;2023-05-16T09:54:36;3.23;;;1.13;;
32094;SDS011;18608;53.688;10.748;2023-05-16T09:57:02;5.63;;;1.23;;
32094;SDS011;18608;53.688;10.748;2023-05-16T09:59:28;9.63;;;1.40;;
32094;SDS011;18608;53.688;10.748;2023-05-16T10:01:56;3.83;;;1.40;;
32094;SDS011;18608;53.688;10.748;2023-05-16T10:04:23;7.43;;;0.80;;
32094;SDS011;18608;53.688;10.748;2023-05-16T10:06:49;4.40;;;1.33;;
32094;SDS011;18608;53.688;10.748;2023-05-16T10:09:18;5.30;;;1.67;;
32094;SDS011;18608;53.688;10.748;2023-05-16T10:11:46;7.63;;;1.50;;
32094;SDS011;18608;53.688;10.748;2023-05-16T10:14:14;7.60;;;1.73;;
32094;SDS011;18608;53.688;10.748;2023-05-16T10:16:42;9.07;;;2.20;;
32094;SDS011;18608;53.688;10.748;2023-05-16T10:19:10;2.17;;;1.50;;
32094;SDS011;18608;53.688;10.748;2023-05-16T10:21:37;6.93;;;2.00;;
32094;SDS011;18608;53.688;10.748;2023-05-16T10:24:05;1.83;;;1.47;;
32094;SDS011;18608;53.688;10.748;2023-05-16T10:26:32;3.07;;;1.40;;
32094;SDS011;18608;53.688;10.748;2023-05-16T10:28:59;4.40;;;1.10;;
32094;SDS011;18608;53.688;10.748;2023-05-16T10:31:26;9.73;;;1.63;;
32094;SDS011;18608;53.688;10.748;2023-05-16T10:33:53;1.13;;;1.00;;
32094;SDS011;18608;53.688;10.748;2023-05-16T10:36:20;4.43;;;1.03;;
32094;SDS011;18608;53.688;10.748;2023-05-16T10:38:46;4.40;;;1.57;;
32094;SDS011;18608;53.688;10.748;2023-05-16T10:41:12;7.97;;;1.67;;
32094;SDS011;18608;53.688;10.748;2023-05-16T10:43:38;5.07;;;1.53;;
32094;SDS011;18608;53.688;10.748;2023-05-16T10:46:08;6.47;;;1.97;;
32094;SDS011;18608;53.688;10.748;2023-05-16T10:48:37;8.67;;;2.00;;
32094;SDS011;18608;53.688;10.748;2023-05-16T10:51:49;6.87;;;1.40;;
32094;SDS011;18608;53.688;10.748;2023-05-16T10:54:03;4.50;;;1.53;;
32094;SDS011;18608;53.688;10.748;2023-05-16T10:56:39;11.07;;;1.60;;
32094;SDS011;18608;53.688;10.748;2023-05-16T10:59:20;4.67;;;1.80;;
32094;SDS011;18608;53.688;10.748;2023-05-16T11:01:51;4.63;;;1.50;;
32094;SDS011;18608;53.688;10.748;2023-05-16T11:04:18;6.63;;;2.40;;
32094;SDS011;18608;53.688;10.748;2023-05-16T11:06:44;8.30;;;2.43;;
32094;SDS011;18608;53.688;10.748;2023-05-16T11:09:23;7.60;;;1.90;;
32094;SDS011;18608;53.688;10.748;2023-05-16T11:14:20;3.73;;;1.53;;
32094;SDS011;18608;53.688;10.748;2023-05-16T11:16:50;4.90;;;1.30;;
32094;SDS011;18608;53.688;10.748;2023-05-16T11:19:42;3.93;;;1.23;;
32094;SDS011;18608;53.688;10.748;2023-05-16T11:22:20;1.50;;;1.00;;
32094;SDS011;18608;53.688;10.748;2023-05-16T11:24:58;1.00;;;0.90;;
32094;SDS011;18608;53.688;10.748;2023-05-16T11:29:52;6.70;;;1.37;;
32094;SDS011;18608;53.688;10.748;2023-05-16T11:32:20;4.80;;;1.83;;
32094;SDS011;18608;53.688;10.748;2023-05-16T11:34:47;4.53;;;1.77;;
32094;SDS011;18608;53.688;10.748;2023-05-16T11:37:14;6.63;;;2.03;;
32094;SDS011;18608;53.688;10.748;2023-05-16T11:39:40;8.57;;;2.20;;
32094;SDS011;18608;53.688;10.748;2023-05-16T11:42:07;5.87;;;2.27;;
32094;SDS011;18608;53.688;10.748;2023-05-16T11:44:33;8.60;;;2.00;;
32094;SDS011;18608;53.688;10.748;2023-05-16T11:47:00;8.43;;;1.80;;
32094;SDS011;18608;53.688;10.748;2023-05-16T11:49:29;3.57;;;1.50;;
32094;SDS011;18608;53.688;10.748;2023-05-16T11:51:55;4.10;;;1.50;;
32094;SDS011;18608;53.688;10.748;2023-05-16T11:54:22;16.40;;;2.17;;
32094;SDS011;18608;53.688;10.748;2023-05-16T11:56:48;7.27;;;1.80;;
32094;SDS011;18608;53.688;10.748;2023-05-16T11:59:15;4.80;;;1.83;;
32094;SDS011;18608;53.688;10.748;2023-05-16T12:01:42;10.23;;;1.77;;
32094;SDS011;18608;53.688;10.748;2023-05-16T12:04:08;10.87;;;1.83;;
32094;SDS011;18608;53.688;10.748;2023-05-16T12:06:35;4.27;;;1.57;;
32094;SDS011;18608;53.688;10.748;2023-05-16T12:09:02;8.00;;;1.60;;
32094;SDS011;18608;53.688;10.748;2023-05-16T12:11:35;9.40;;;2.07;;
32094;SDS011;18608;53.688;10.748;2023-05-16T12:14:05;5.70;;;1.73;;
32094;SDS011;18608;53.688;10.748;2023-05-16T12:16:32;1.90;;;1.30;;
32094;SDS011;18608;53.688;10.748;2023-05-16T12:18:58;5.77;;;1.00;;
32094;SDS011;18608;53.688;10.748;2023-05-16T12:21:26;9.03;;;1.20;;
32094;SDS011;18608;53.688;10.748;2023-05-16T12:23:54;1.30;;;1.03;;
32094;SDS011;18608;53.688;10.748;2023-05-16T12:26:25;5.93;;;1.23;;
32094;SDS011;18608;53.688;10.748;2023-05-16T12:28:56;2.50;;;1.13;;
32094;SDS011;18608;53.688;10.748;2023-05-16T12:31:24;5.80;;;1.50;;
32094;SDS011;18608;53.688;10.748;2023-05-16T12:33:53;11.50;;;1.60;;
32094;SDS011;18608;53.688;10.748;2023-05-16T12:36:20;7.87;;;1.20;;
32094;SDS011;18608;53.688;10.748;2023-05-16T12:38:46;4.50;;;1.67;;
32094;SDS011;18608;53.688;10.748;2023-05-16T12:41:18;8.43;;;1.67;;
32094;SDS011;18608;53.688;10.748;2023-05-16T12:43:46;7.10;;;1.97;;
32094;SDS011;18608;53.688;10.748;2023-05-16T12:46:12;3.80;;;1.27;;
32094;SDS011;18608;53.688;10.748;2023-05-16T12:48:38;8.10;;;2.10;;
32094;SDS011;18608;53.688;10.748;2023-05-16T12:51:13;5.13;;;1.60;;
32094;SDS011;18608;53.688;10.748;2023-05-16T12:53:44;6.53;;;1.37;;
32094;SDS011;18608;53.688;10.748;2023-05-16T12:56:12;4.20;;;1.40;;
32094;SDS011;18608;53.688;10.748;2023-05-16T12:58:39;5.87;;;1.60;;
32094;SDS011;18608;53.688;10.748;2023-05-16T13:01:05;11.30;;;2.47;;
32094;SDS011;18608;53.688;10.748;2023-05-16T13:03:31;6.10;;;2.60;;
32094;SDS011;18608;53.688;10.748;2023-05-16T13:05:58;3.80;;;1.40;;
32094;SDS011;18608;53.688;10.748;2023-05-16T13:08:24;8.27;;;1.97;;
32094;SDS011;18608;53.688;10.748;2023-05-16T13:10:50;9.63;;;1.77;;
32094;SDS011;18608;53.688;10.748;2023-05-16T13:13:16;6.93;;;1.57;;
32094;SDS011;18608;53.688;10.748;2023-05-16T13:15:43;12.40;;;1.90;;
32094;SDS011;18608;53.688;10.748;2023-05-16T13:18:09;18.43;;;2.10;;
32094;SDS011;18608;53.688;10.748;2023-05-16T13:20:35;4.40;;;2.03;;
32094;SDS011;18608;53.688;10.748;2023-05-16T13:23:02;4.27;;;1.60;;
32094;SDS011;18608;53.688;10.748;2023-05-16T13:25:29;5.63;;;1.90;;
32094;SDS011;18608;53.688;10.748;2023-05-16T13:27:55;3.87;;;1.20;;
32094;SDS011;18608;53.688;10.748;2023-05-16T13:30:21;2.70;;;1.60;;
32094;SDS011;18608;53.688;10.748;2023-05-16T13:32:48;2.97;;;1.10;;
32094;SDS011;18608;53.688;10.748;2023-05-16T13:35:15;6.27;;;1.77;;
32094;SDS011;18608;53.688;10.748;2023-05-16T13:37:41;5.43;;;1.83;;
32094;SDS011;18608;53.688;10.748;2023-05-16T13:40:06;4.97;;;1.90;;
32094;SDS011;18608;53.688;10.748;2023-05-16T13:42:35;11.37;;;1.97;;
32094;SDS011;18608;53.688;10.748;2023-05-16T13:45:02;6.30;;;1.97;;
32094;SDS011;18608;53.688;10.748;2023-05-16T13:47:28;10.83;;;1.90;;
32094;SDS011;18608;53.688;10.748;2023-05-16T13:49:55;4.40;;;2.00;;
32094;SDS011;18608;53.688;10.748;2023-05-16T13:52:21;2.40;;;2.03;;
32094;SDS011;18608;53.688;10.748;2023-05-16T13:54:46;4.20;;;1.47;;
32094;SDS011;18608;53.688;10.748;2023-05-16T13:57:12;7.73;;;1.97;;
32094;SDS011;18608;53.688;10.748;2023-05-16T13:59:38;8.30;;;1.80;;
32094;SDS011;18608;53.688;10.748;2023-05-16T14:02:04;3.13;;;1.80;;
32094;SDS011;18608;53.688;10.748;2023-05-16T14:04:30;8.33;;;1.70;;
32094;SDS011;18608;53.688;10.748;2023-05-16T14:06:57;7.50;;;1.37;;
32094;SDS011;18608;53.688;10.748;2023-05-16T14:09:23;5.13;;;1.07;;
32094;SDS011;18608;53.688;10.748;2023-05-16T14:11:49;3.27;;;1.43;;
32094;SDS011;18608;53.688;10.748;2023-05-16T14:14:15;8.07;;;1.90;;
32094;SDS011;18608;53.688;10.748;2023-05-16T14:16:41;7.03;;;1.47;;
32094;SDS011;18608;53.688;10.748;2023-05-16T14:19:09;6.27;;;1.40;;
32094;SDS011;18608;53.688;10.748;2023-05-16T14:21:35;2.57;;;1.33;;
32094;SDS011;18608;53.688;10.748;2023-05-16T14:24:01;20.97;;;1.67;;
32094;SDS011;18608;53.688;10.748;2023-05-16T14:26:27;12.53;;;2.40;;
32094;SDS011;18608;53.688;10.748;2023-05-16T14:28:53;2.30;;;1.10;;
32094;SDS011;18608;53.688;10.748;2023-05-16T14:31:20;9.10;;;1.40;;
32094;SDS011;18608;53.688;10.748;2023-05-16T14:33:47;13.00;;;2.23;;
32094;SDS011;18608;53.688;10.748;2023-05-16T14:36:13;12.50;;;1.50;;
32094;SDS011;18608;53.688;10.748;2023-05-16T14:38:39;3.23;;;1.17;;
32094;SDS011;18608;53.688;10.748;2023-05-16T14:41:05;5.83;;;2.00;;
32094;SDS011;18608;53.688;10.748;2023-05-16T14:43:31;6.27;;;1.33;;
32094;SDS011;18608;53.688;10.748;2023-05-16T14:45:57;7.60;;;2.10;;
32094;SDS011;18608;53.688;10.748;2023-05-16T14:48:23;4.37;;;1.80;;
32094;SDS011;18608;53.688;10.748;2023-05-16T14:50:49;3.17;;;1.60;;
32094;SDS011;18608;53.688;10.748;2023-05-16T14:53:17;6.67;;;1.87;;